»·PEaware :: BOLT91 KEND-KEND

BOLT91 :: KEND-KEND

FLIGHT INFORMATION

Flight Status: Arrived
Operator: Unknown
More flights by this operator :: More flights under this callsign
Pilot: Keith S. (1)
Aircraft: BEECH AIRCRAFT T-6A TEXAN
(TEX2)
More flights by this aircraft type
Origin: KEND Vance AFB
United States
Destination: KEND Vance AFB
United States
More flights between these airports :: More routes between these airports
Route: +NL
File this flight plan on PilotEdge
Remarks:
Altitude:
(Current/Filed)
0ft
Speed:
(Current/Filed)
0kts
Departed: 06-Jul-19 07:17 PM
Arrived: 06-Jul-19 07:43 PM
Distance/Time
Traveled:
1nm/0:26
Distance/Time
To Go:
Arrived

Flight Plot

Page will automatically refresh every two minutes.

Flight plan parsing failed; only flown route is shown


Map Options




Map Legend


Flown Route
Filed Route
Departure Airport
Arrival Airport
Navaid (VOR, NDB)
Fix

Horizontal Profiles

Position Reports

Time Latitude Longitude Heading Altitude Ground
Speed
06-Jul-19 18:47 36.340758 -97.907972 268 1286ft 0kts
06-Jul-19 18:48 36.340758 -97.907972 268 1286ft 0kts
06-Jul-19 18:49 36.340758 -97.907972 268 1286ft 0kts
06-Jul-19 18:50 36.340758 -97.907972 268 1286ft 0kts
06-Jul-19 18:51 36.340758 -97.907972 268 1286ft 0kts
06-Jul-19 18:52 36.340758 -97.907972 268 1286ft 0kts
06-Jul-19 18:53 36.340758 -97.907972 268 1286ft 0kts
06-Jul-19 18:54 36.340758 -97.907972 268 1286ft 0kts
06-Jul-19 18:55 36.340758 -97.907972 268 1286ft 0kts
06-Jul-19 18:56 36.340758 -97.907972 268 1286ft 0kts
06-Jul-19 18:57 36.340758 -97.907972 268 1286ft 0kts
06-Jul-19 18:58 36.340758 -97.907972 268 1286ft 0kts
06-Jul-19 18:59 36.340758 -97.907972 268 1286ft 0kts
06-Jul-19 19:00 36.340758 -97.907972 268 1286ft 0kts
06-Jul-19 19:01 36.340758 -97.907972 268 1286ft 0kts
06-Jul-19 19:02 36.340758 -97.907972 268 1286ft 0kts
06-Jul-19 19:02 36.355318 -97.914652 180 1276ft 0kts
06-Jul-19 19:03 36.355318 -97.914652 180 1276ft 0kts
06-Jul-19 19:05 36.340758 -97.907972 268 1286ft 0kts
06-Jul-19 19:05 36.340758 -97.907972 268 1286ft 0kts
06-Jul-19 19:06 36.340758 -97.907973 269 1286ft 0kts
06-Jul-19 19:08 36.340758 -97.907973 269 1286ft 0kts
06-Jul-19 19:08 36.340758 -97.907973 269 1286ft 0kts
06-Jul-19 19:09 36.340758 -97.907973 269 1286ft 0kts
06-Jul-19 19:10 36.340757 -97.908435 272 1286ft 7kts
06-Jul-19 19:11 36.344143 -97.909205 359 1282ft 24kts
06-Jul-19 19:12 36.346828 -97.909877 268 1277ft 0kts
06-Jul-19 19:13 36.346828 -97.909877 268 1277ft 0kts
06-Jul-19 19:14 36.346828 -97.909877 268 1277ft 0kts
06-Jul-19 19:15 36.345835 -97.910997 180 1278ft 23kts
06-Jul-19 19:16 36.307639 -97.907139 169 2603ft 178kts
06-Jul-19 19:17 36.258157 -97.896580 172 5074ft 203kts
06-Jul-19 19:18 36.254346 -97.862892 337 4992ft 194kts
06-Jul-19 19:19 36.309339 -97.897289 332 4989ft 250kts
06-Jul-19 19:20 36.378281 -97.916597 0 4913ft 265kts
06-Jul-19 19:21 36.451384 -97.908480 4 5005ft 266kts
06-Jul-19 19:22 36.521919 -97.905300 359 6891ft 218kts
06-Jul-19 19:23 36.576883 -97.896717 30 10173ft 195kts
06-Jul-19 19:24 36.623995 -97.852529 40 11954ft 226kts
06-Jul-19 19:25 36.670918 -97.793866 48 11980ft 243kts
06-Jul-19 19:26 36.696036 -97.759038 287 11753ft 223kts
06-Jul-19 19:27 36.713889 -97.755738 109 11923ft 253kts
06-Jul-19 19:28 36.701284 -97.669469 33 11594ft 281kts
06-Jul-19 19:29 36.741289 -97.726985 279 11309ft 256kts
06-Jul-19 19:30 36.698472 -97.776232 220 11585ft 212kts
06-Jul-19 19:31 36.645990 -97.813281 199 10325ft 211kts
06-Jul-19 19:32 36.586361 -97.805540 167 5476ft 254kts
06-Jul-19 19:33 36.535099 -97.811298 214 2999ft 139kts
06-Jul-19 19:34 36.500600 -97.842403 203 2970ft 165kts
06-Jul-19 19:35 36.452622 -97.865094 200 3009ft 209kts
06-Jul-19 19:36 36.434937 -97.873118 199 2867ft 229kts
06-Jul-19 19:37 36.434937 -97.873118 199 2867ft 229kts
06-Jul-19 19:38 36.434937 -97.873118 199 2867ft 229kts
06-Jul-19 19:39 36.434937 -97.873118 199 2867ft 229kts
06-Jul-19 19:42 36.340758 -97.907972 268 1286ft 0kts
06-Jul-19 19:43 36.340758 -97.907972 268 1286ft 0kts
06-Jul-19 19:45 36.340758 -97.907972 268 1286ft 0kts
06-Jul-19 19:46 36.340758 -97.907972 268 1286ft 0kts
06-Jul-19 19:47 36.340760 -97.908031 271 1286ft 0kts
06-Jul-19 19:48 36.340760 -97.908030 271 1286ft 0kts
06-Jul-19 19:49 36.340760 -97.908030 271 1286ft 0kts
06-Jul-19 19:50 36.340760 -97.908031 272 1286ft 0kts
06-Jul-19 19:51 36.340760 -97.908031 272 1286ft 0kts
06-Jul-19 19:52 36.340760 -97.908031 272 1286ft 0kts
06-Jul-19 19:53 36.340760 -97.908031 272 1286ft 0kts
06-Jul-19 19:54 36.340760 -97.908031 272 1286ft 0kts
06-Jul-19 19:55 36.342103 -97.909195 0 1283ft 21kts
06-Jul-19 19:56 36.346790 -97.909869 270 1277ft 0kts

Navigation Log

Ident Type
Flight plan parsing failed, navigation log unavailable